Weather at Teminabuan Airport

Public forecast

Using degrees Celsius for public forecast. Weather courtesy of forecast.io.

Closest aviation weather report (METAR) to Teminabuan Airport

Closest report is Frans Kaisiepo Airport, 245.8 nm (455.2 km) E. Retrieved 2022/01/18 07:30 UTC (20 minutes ago):

WABB 180730Z 33004KT 150V330 9999 -RA SCT018 BKN100 27/25 Q1006 NOSIG

Closest aviation forecast (TAF) to Teminabuan Airport

Closest forecast is Rendani Airport, 126.2 nm (233.7 km) ENE. Retrieved UTC (0 seconds ago):